createdAt,value
2023-04-13T00:01:32.806Z,8.64
2023-04-13T00:04:03.364Z,8.62
2023-04-13T00:06:30.461Z,8.63
2023-04-13T00:08:58.651Z,8.64
2023-04-13T00:11:27.768Z,8.64
2023-04-13T00:13:55.253Z,8.68
2023-04-13T00:16:22.204Z,8.69
2023-04-13T00:18:50.202Z,8.68
2023-04-13T00:21:17.112Z,8.62
2023-04-13T00:23:44.636Z,8.68
2023-04-13T00:26:11.097Z,8.78
2023-04-13T00:28:37.928Z,8.74
2023-04-13T00:31:04.746Z,8.67
2023-04-13T00:33:31.509Z,8.71
2023-04-13T00:35:58.005Z,8.77
2023-04-13T00:38:27.160Z,8.75
2023-04-13T00:40:54.615Z,8.83
2023-04-13T00:43:21.520Z,8.73
2023-04-13T00:45:48.646Z,8.77
2023-04-13T00:48:15.881Z,8.44
2023-04-13T00:50:42.718Z,8.61
2023-04-13T00:53:13.150Z,8.61
2023-04-13T00:55:42.427Z,8.52
2023-04-13T00:58:09.173Z,8.52
2023-04-13T01:00:39.038Z,8.66
2023-04-13T01:03:05.986Z,8.62
2023-04-13T01:05:50.517Z,8.38
2023-04-13T01:08:20.878Z,8.52
2023-04-13T01:11:05.924Z,8.60
2023-04-13T01:13:48.971Z,8.65
2023-04-13T01:16:15.893Z,8.54
2023-04-13T01:18:45.159Z,8.63
2023-04-13T01:21:14.770Z,8.64
2023-04-13T01:24:22.415Z,8.51
2023-04-13T01:27:06.980Z,8.46
2023-04-13T01:29:36.237Z,8.44
2023-04-13T01:32:03.114Z,8.34
2023-04-13T01:34:30.037Z,8.28
2023-04-13T01:36:57.109Z,8.22
2023-04-13T01:39:25.581Z,7.91
2023-04-13T01:41:52.037Z,8.08
2023-04-13T01:44:18.581Z,8.11
2023-04-13T01:46:49.467Z,7.87
2023-04-13T01:49:19.768Z,7.91
2023-04-13T01:51:48.153Z,7.79
2023-04-13T01:54:25.636Z,7.72
2023-04-13T01:56:53.012Z,7.74
2023-04-13T01:59:20.118Z,7.86
2023-04-13T02:04:13.867Z,7.74
2023-04-13T02:06:42.235Z,7.63
2023-04-13T02:09:08.697Z,7.76
2023-04-13T02:11:36.305Z,7.76
2023-04-13T02:14:03.958Z,7.73
2023-04-13T02:16:30.467Z,7.67
2023-04-13T02:18:58.539Z,7.51
2023-04-13T02:21:25.717Z,7.60
2023-04-13T02:23:55.007Z,7.57
2023-04-13T02:26:21.499Z,7.45
2023-04-13T02:28:49.384Z,7.44
2023-04-13T02:31:16.753Z,7.40
2023-04-13T02:33:44.713Z,7.22
2023-04-13T02:36:11.635Z,7.26
2023-04-13T02:38:38.495Z,7.30
2023-04-13T02:41:06.314Z,7.26
2023-04-13T02:43:33.250Z,7.33
2023-04-13T02:45:59.886Z,7.23
2023-04-13T02:48:26.925Z,7.26
2023-04-13T02:50:54.300Z,7.20
2023-04-13T02:53:24.594Z,7.13
2023-04-13T02:55:52.664Z,7.08
2023-04-13T02:58:20.256Z,6.99
2023-04-13T03:00:48.537Z,6.92
2023-04-13T03:03:16.874Z,6.86
2023-04-13T03:05:43.528Z,6.80
2023-04-13T03:08:10.225Z,6.91
2023-04-13T03:10:37.474Z,6.92
2023-04-13T03:13:03.849Z,6.81
2023-04-13T03:15:30.815Z,6.69
2023-04-13T03:17:59.896Z,6.71
2023-04-13T03:20:28.954Z,6.57
2023-04-13T03:22:56.225Z,6.37
2023-04-13T03:25:22.673Z,6.22
2023-04-13T03:27:49.081Z,6.17
2023-04-13T03:30:15.542Z,5.92
2023-04-13T03:32:41.953Z,5.76
2023-04-13T03:35:08.753Z,5.71
2023-04-13T03:37:40.458Z,5.60
2023-04-13T03:40:10.466Z,5.41
2023-04-13T03:42:37.421Z,5.38
2023-04-13T03:45:05.003Z,5.47
2023-04-13T03:47:31.484Z,5.37
2023-04-13T03:49:58.025Z,5.24
2023-04-13T03:52:24.525Z,5.11
2023-04-13T03:54:51.202Z,5.22
2023-04-13T03:57:17.690Z,5.04
2023-04-13T03:59:44.140Z,4.95
2023-04-13T04:02:10.915Z,4.86
2023-04-13T04:04:37.455Z,5.00
2023-04-13T04:07:03.943Z,4.93
2023-04-13T04:09:30.352Z,4.87
2023-04-13T04:11:56.753Z,4.88
2023-04-13T04:14:23.673Z,4.77
2023-04-13T04:16:50.381Z,4.70
2023-04-13T04:19:17.026Z,4.73
2023-04-13T04:21:46.845Z,4.54
2023-04-13T04:24:31.374Z,4.44
2023-04-13T04:27:02.542Z,4.54
2023-04-13T04:29:34.986Z,4.54
2023-04-13T04:32:03.086Z,4.43
2023-04-13T04:34:30.145Z,4.59
2023-04-13T04:37:00.238Z,4.46
2023-04-13T04:39:32.957Z,4.54
2023-04-13T04:42:05.235Z,4.56
2023-04-13T04:44:31.756Z,4.59
2023-04-13T04:47:02.756Z,4.58
2023-04-13T04:49:29.465Z,4.70
2023-04-13T04:51:57.409Z,4.73
2023-04-13T04:54:24.193Z,4.72
2023-04-13T04:56:51.589Z,4.68
2023-04-13T04:59:19.497Z,4.83
2023-04-13T05:01:46.096Z,4.73
2023-04-13T05:04:12.642Z,4.74
2023-04-13T05:06:41.395Z,4.80
2023-04-13T05:09:08.923Z,4.73
2023-04-13T05:11:35.812Z,4.78
2023-04-13T05:14:02.384Z,4.85
2023-04-13T05:16:30.519Z,4.96
2023-04-13T05:18:57.416Z,5.01
2023-04-13T05:21:24.161Z,5.05
2023-04-13T05:23:50.933Z,5.07
2023-04-13T05:26:17.481Z,5.09
2023-04-13T05:28:43.887Z,5.13
2023-04-13T05:31:11.263Z,5.26
2023-04-13T05:33:38.112Z,5.25
2023-04-13T05:36:05.298Z,5.23
2023-04-13T05:38:31.854Z,5.25
2023-04-13T05:40:58.668Z,5.26
2023-04-13T05:43:25.146Z,5.34
2023-04-13T05:45:52.131Z,5.46
2023-04-13T05:48:18.897Z,5.35
2023-04-13T05:50:45.393Z,5.44
2023-04-13T05:53:11.930Z,5.42
2023-04-13T05:55:44.791Z,5.61
2023-04-13T05:58:12.844Z,5.64
2023-04-13T06:00:39.879Z,5.68
2023-04-13T06:03:07.371Z,5.75
2023-04-13T06:05:36.571Z,5.87
2023-04-13T06:08:03.314Z,5.95
2023-04-13T06:10:29.939Z,6.05
2023-04-13T06:12:56.461Z,6.15
2023-04-13T06:15:23.530Z,6.18
2023-04-13T06:17:53.334Z,6.33
2023-04-13T06:20:21.268Z,6.42
2023-04-13T06:22:47.991Z,6.44
2023-04-13T06:25:14.899Z,6.55
2023-04-13T06:27:43.387Z,6.65
2023-04-13T06:30:10.756Z,6.62
2023-04-13T06:32:37.490Z,6.79
2023-04-13T06:35:05.909Z,6.80
2023-04-13T06:37:34.980Z,6.83
2023-04-13T06:40:12.339Z,6.90
2023-04-13T06:42:40.325Z,7.02
2023-04-13T06:45:08.816Z,7.05
2023-04-13T06:47:36.217Z,7.13
2023-04-13T06:50:07.073Z,7.15
2023-04-13T06:52:34.006Z,7.13
2023-04-13T06:55:00.754Z,7.10
2023-04-13T06:57:27.843Z,7.17
2023-04-13T06:59:54.506Z,7.07
2023-04-13T07:02:21.496Z,7.28
2023-04-13T07:04:48.474Z,7.45
2023-04-13T07:07:15.050Z,7.50
2023-04-13T07:09:41.787Z,7.44
2023-04-13T07:12:08.312Z,7.53
2023-04-13T07:14:35.939Z,7.49
2023-04-13T07:17:02.965Z,7.67
2023-04-13T07:19:30.877Z,7.58
2023-04-13T07:21:59.864Z,7.53
2023-04-13T07:24:29.837Z,7.79
2023-04-13T07:26:57.539Z,7.77
2023-04-13T07:29:24.826Z,7.82
2023-04-13T07:31:51.988Z,7.92
2023-04-13T07:34:18.900Z,8.01
2023-04-13T07:36:45.856Z,8.12
2023-04-13T07:39:12.285Z,8.18
2023-04-13T07:41:38.778Z,8.25
2023-04-13T07:44:05.317Z,8.37
2023-04-13T07:46:33.481Z,8.43
2023-04-13T07:49:00.751Z,8.55
2023-04-13T07:51:27.602Z,8.53
2023-04-13T07:53:54.629Z,8.53
2023-04-13T07:56:21.663Z,8.51
2023-04-13T07:58:48.121Z,8.66
2023-04-13T08:01:14.599Z,8.68
2023-04-13T08:03:41.246Z,8.63
2023-04-13T08:06:08.714Z,8.85
2023-04-13T08:08:35.163Z,8.85
2023-04-13T08:11:01.986Z,8.91
2023-04-13T08:13:29.672Z,8.99
2023-04-13T08:15:57.505Z,9.00
2023-04-13T08:18:24.470Z,8.99
2023-04-13T08:20:50.898Z,9.08
2023-04-13T08:23:17.340Z,9.03
2023-04-13T08:25:44.595Z,8.96
2023-04-13T08:28:10.981Z,9.12
2023-04-13T08:30:37.856Z,9.10
2023-04-13T08:33:04.549Z,9.08
2023-04-13T08:35:31.337Z,9.09
2023-04-13T08:37:58.216Z,9.22
2023-04-13T08:40:24.960Z,9.04
2023-04-13T08:42:53.839Z,9.30
2023-04-13T08:45:20.974Z,9.36
2023-04-13T08:47:49.330Z,9.48
2023-04-13T08:50:16.840Z,9.27
2023-04-13T08:52:43.264Z,9.41
2023-04-13T08:55:09.665Z,9.55
2023-04-13T08:57:37.198Z,9.64
2023-04-13T09:00:09.211Z,9.71
2023-04-13T09:02:38.420Z,9.43
2023-04-13T09:05:15.726Z,9.55
2023-04-13T09:07:47.899Z,9.51
2023-04-13T09:10:16.392Z,9.55
2023-04-13T09:12:42.803Z,9.59
2023-04-13T09:15:13.511Z,9.59
2023-04-13T09:17:40.100Z,9.56
2023-04-13T09:20:24.248Z,9.45
2023-04-13T09:22:52.366Z,9.63
2023-04-13T09:25:24.568Z,9.79
2023-04-13T09:27:52.170Z,9.78
2023-04-13T09:30:23.102Z,9.91
2023-04-13T09:33:04.643Z,9.98
2023-04-13T09:35:32.053Z,10.03
2023-04-13T09:37:59.805Z,10.09
2023-04-13T09:40:30.125Z,10.13
2023-04-13T09:43:04.648Z,10.03
2023-04-13T09:45:41.888Z,10.20
2023-04-13T09:48:20.582Z,10.21
2023-04-13T09:51:02.070Z,10.23
2023-04-13T09:53:39.699Z,10.34
2023-04-13T09:56:06.326Z,10.43
2023-04-13T09:58:32.739Z,10.46
2023-04-13T10:01:00.279Z,10.58
2023-04-13T10:03:27.779Z,10.60
2023-04-13T10:06:00.132Z,10.63
2023-04-13T10:11:00.149Z,10.86
2023-04-13T10:13:36.710Z,10.74
2023-04-13T10:16:29.101Z,10.63
2023-04-13T10:19:07.783Z,10.85
2023-04-13T10:21:40.638Z,10.91
2023-04-13T10:24:12.211Z,11.02
2023-04-13T10:26:40.787Z,11.06
2023-04-13T10:29:09.086Z,11.16
2023-04-13T10:31:48.002Z,11.11
2023-04-13T10:34:32.465Z,11.20
2023-04-13T10:37:03.679Z,11.10
2023-04-13T10:39:32.313Z,11.05
2023-04-13T10:42:09.251Z,11.03
2023-04-13T10:44:45.315Z,11.05
2023-04-13T10:47:16.958Z,11.01
2023-04-13T10:49:44.759Z,11.09
2023-04-13T10:52:11.591Z,11.21
2023-04-13T10:54:39.604Z,11.23
2023-04-13T10:57:08.867Z,11.21
2023-04-13T10:59:57.914Z,11.15
2023-04-13T11:02:31.928Z,11.23
2023-04-13T11:04:59.669Z,11.30
2023-04-13T11:07:26.678Z,11.19
2023-04-13T11:12:29.060Z,11.12
2023-04-13T11:14:55.661Z,11.19
2023-04-13T11:17:22.381Z,11.12
2023-04-13T11:19:53.853Z,11.09
2023-04-13T11:22:27.645Z,11.08
2023-04-13T11:25:06.323Z,11.20
2023-04-13T11:27:32.747Z,11.03
2023-04-13T11:30:07.330Z,11.02
2023-04-13T11:32:34.317Z,11.15
2023-04-13T11:35:08.186Z,11.18
2023-04-13T11:37:43.034Z,11.15
2023-04-13T11:40:14.696Z,11.28
2023-04-13T11:42:42.791Z,11.33
2023-04-13T11:45:10.437Z,11.10
2023-04-13T11:47:37.375Z,11.33
2023-04-13T11:50:05.609Z,11.32
2023-04-13T11:52:33.612Z,11.32
2023-04-13T11:55:14.974Z,11.30
2023-04-13T11:57:49.368Z,11.32
2023-04-13T12:00:24.434Z,11.20
2023-04-13T12:03:02.025Z,11.23
2023-04-13T12:05:32.440Z,11.00
2023-04-13T12:08:00.697Z,11.15
2023-04-13T12:10:39.346Z,11.16
2023-04-13T12:15:58.149Z,11.35
2023-04-13T12:18:37.076Z,11.47
2023-04-13T12:21:05.717Z,11.52
2023-04-13T12:23:32.773Z,11.58
2023-04-13T12:26:31.877Z,11.63
2023-04-13T12:28:59.570Z,11.72
2023-04-13T12:31:33.017Z,11.73
2023-04-13T12:33:59.607Z,11.72
2023-04-13T12:36:28.514Z,11.75
2023-04-13T12:38:54.911Z,11.81
2023-04-13T12:41:22.728Z,11.87
2023-04-13T12:43:49.128Z,11.82
2023-04-13T12:46:15.712Z,11.90
2023-04-13T12:48:42.175Z,11.92
2023-04-13T12:51:08.940Z,11.94
2023-04-13T12:53:36.040Z,12.03
2023-04-13T12:56:02.501Z,11.96
2023-04-13T12:58:28.916Z,12.01
2023-04-13T13:00:55.689Z,12.10
2023-04-13T13:03:23.506Z,11.96
2023-04-13T13:05:50.039Z,12.06
2023-04-13T13:08:16.421Z,11.85
2023-04-13T13:10:43.110Z,12.04
2023-04-13T13:13:09.761Z,11.93
2023-04-13T13:15:36.733Z,12.03
2023-04-13T13:18:04.459Z,12.06
2023-04-13T13:20:31.132Z,12.10
2023-04-13T13:22:57.858Z,12.15
2023-04-13T13:25:24.594Z,12.20
2023-04-13T13:30:20.279Z,12.15
2023-04-13T13:32:46.886Z,12.28
2023-04-13T13:35:14.739Z,12.16
2023-04-13T13:37:41.279Z,12.16
2023-04-13T13:40:13.079Z,12.26
2023-04-13T13:42:50.704Z,12.32
2023-04-13T13:45:18.652Z,12.32
2023-04-13T13:47:48.650Z,12.28
2023-04-13T13:50:15.179Z,12.38
2023-04-13T13:52:48.747Z,12.43
2023-04-13T13:55:26.128Z,12.55
2023-04-13T13:57:52.535Z,12.49
2023-04-13T14:00:19.730Z,12.35
2023-04-13T14:02:47.177Z,12.44
2023-04-13T14:05:13.748Z,12.32
2023-04-13T14:07:42.011Z,12.19
2023-04-13T14:10:12.781Z,12.34
2023-04-13T14:12:44.751Z,12.39
2023-04-13T14:15:12.317Z,12.45
2023-04-13T14:17:39.612Z,12.41
2023-04-13T14:20:12.830Z,12.44
2023-04-13T14:22:41.032Z,12.40
2023-04-13T14:25:11.235Z,12.45
2023-04-13T14:27:38.674Z,12.38
2023-04-13T14:30:06.105Z,12.38
2023-04-13T14:32:32.773Z,12.35
2023-04-13T14:35:00.537Z,12.33
2023-04-13T14:37:27.996Z,12.39
2023-04-13T14:39:55.379Z,12.36
2023-04-13T14:42:24.396Z,12.36
2023-04-13T14:44:51.759Z,12.39
2023-04-13T14:47:19.505Z,12.39
2023-04-13T14:49:47.216Z,12.31
2023-04-13T14:52:14.254Z,12.26
2023-04-13T14:54:40.652Z,12.35
2023-04-13T14:57:07.036Z,12.28
2023-04-13T14:59:33.687Z,12.29
2023-04-13T15:02:00.877Z,12.30
2023-04-13T15:04:28.153Z,12.31
2023-04-13T15:06:54.729Z,12.29
2023-04-13T15:09:21.871Z,12.23
2023-04-13T15:11:49.163Z,12.27
2023-04-13T15:14:15.563Z,12.23
2023-04-13T15:16:41.942Z,12.34
2023-04-13T15:19:08.423Z,12.24
2023-04-13T15:21:35.641Z,12.38
2023-04-13T15:24:02.117Z,12.28
2023-04-13T15:26:29.784Z,12.31
2023-04-13T15:28:56.083Z,12.24
2023-04-13T15:31:22.657Z,12.31
2023-04-13T15:33:49.158Z,12.28
2023-04-13T15:36:16.424Z,12.22
2023-04-13T15:38:43.141Z,12.26
2023-04-13T15:41:11.338Z,12.25
2023-04-13T15:43:38.199Z,12.25
2023-04-13T15:46:04.957Z,12.23
2023-04-13T15:48:31.956Z,12.17
2023-04-13T15:51:01.683Z,12.16
2023-04-13T15:53:28.339Z,12.11
2023-04-13T15:55:54.999Z,12.09
2023-04-13T15:58:21.573Z,12.04
2023-04-13T16:00:57.390Z,12.03
2023-04-13T16:03:24.214Z,12.01
2023-04-13T16:05:50.988Z,11.98
2023-04-13T16:08:19.185Z,12.00
2023-04-13T16:10:45.727Z,11.95
2023-04-13T16:13:18.842Z,11.91
2023-04-13T16:15:58.773Z,11.86
2023-04-13T16:18:30.067Z,11.87
2023-04-13T16:21:03.439Z,11.85
2023-04-13T16:23:33.514Z,11.82
2023-04-13T16:26:03.014Z,11.68
2023-04-13T16:28:29.618Z,11.73
2023-04-13T16:30:56.326Z,11.70
2023-04-13T16:33:23.271Z,11.68
2023-04-13T16:35:49.623Z,11.56
2023-04-13T16:38:15.984Z,11.54
2023-04-13T16:40:42.420Z,11.48
2023-04-13T16:43:09.465Z,11.42
2023-04-13T16:45:36.850Z,11.35
2023-04-13T16:48:06.215Z,11.31
2023-04-13T16:50:33.116Z,11.30
2023-04-13T16:52:59.645Z,11.27
2023-04-13T16:55:28.170Z,11.22
2023-04-13T16:57:54.911Z,11.17
2023-04-13T17:00:21.730Z,11.14
2023-04-13T17:02:48.132Z,11.18
2023-04-13T17:05:14.759Z,11.11
2023-04-13T17:07:43.293Z,11.17
2023-04-13T17:10:12.328Z,11.11
2023-04-13T17:12:39.026Z,11.12
2023-04-13T17:15:06.059Z,11.11
2023-04-13T17:17:32.791Z,11.13
2023-04-13T17:20:02.512Z,11.00
2023-04-13T17:22:31.776Z,11.02
2023-04-13T17:24:58.934Z,11.08
2023-04-13T17:27:25.669Z,10.93
2023-04-13T17:29:52.025Z,10.85
2023-04-13T17:32:22.181Z,10.88
2023-04-13T17:34:50.581Z,10.80
2023-04-13T17:37:17.970Z,10.69
2023-04-13T17:39:59.944Z,10.59
2023-04-13T17:42:26.850Z,10.57
2023-04-13T17:44:53.184Z,10.41
2023-04-13T17:47:19.856Z,10.33
2023-04-13T17:49:46.331Z,10.26
2023-04-13T17:52:12.696Z,10.21
2023-04-13T17:54:40.415Z,10.14
2023-04-13T17:57:07.683Z,10.09
2023-04-13T17:59:34.641Z,9.94
2023-04-13T18:02:07.872Z,9.88
2023-04-13T18:04:34.618Z,9.74
2023-04-13T18:07:01.568Z,9.70
2023-04-13T18:09:28.127Z,9.65
2023-04-13T18:11:54.790Z,9.49
2023-04-13T18:14:24.509Z,9.29
2023-04-13T18:16:50.974Z,9.22
2023-04-13T18:19:17.508Z,9.04
2023-04-13T18:21:43.874Z,8.92
2023-04-13T18:24:10.732Z,8.73
2023-04-13T18:26:40.874Z,8.60
2023-04-13T18:29:08.100Z,8.44
2023-04-13T18:31:34.655Z,8.36
2023-04-13T18:34:01.687Z,8.24
2023-04-13T18:36:28.564Z,8.17
2023-04-13T18:38:54.993Z,8.07
2023-04-13T18:41:22.036Z,8.00
2023-04-13T18:43:48.399Z,7.92
2023-04-13T18:46:14.845Z,7.78
2023-04-13T18:48:41.232Z,7.75
2023-04-13T18:51:09.770Z,7.69
2023-04-13T18:53:36.368Z,7.68
2023-04-13T18:56:02.737Z,7.63
2023-04-13T18:58:29.125Z,7.55
2023-04-13T19:00:55.578Z,7.41
2023-04-13T19:03:22.490Z,7.34
2023-04-13T19:05:49.044Z,7.29
2023-04-13T19:08:15.554Z,7.15
2023-04-13T19:10:43.289Z,7.00
2023-04-13T19:13:09.709Z,6.87
2023-04-13T19:15:36.397Z,6.81
2023-04-13T19:18:04.305Z,6.92
2023-04-13T19:20:31.022Z,6.76
2023-04-13T19:22:57.432Z,6.73
2023-04-13T19:25:23.974Z,6.77
2023-04-13T19:27:50.371Z,6.59
2023-04-13T19:30:18.195Z,6.72
2023-04-13T19:32:46.583Z,6.72
2023-04-13T19:35:13.651Z,6.76
2023-04-13T19:37:40.441Z,6.74
2023-04-13T19:40:13.577Z,6.68
2023-04-13T19:42:41.561Z,6.59
2023-04-13T19:45:09.495Z,6.47
2023-04-13T19:47:39.805Z,6.41
2023-04-13T19:50:08.835Z,6.41
2023-04-13T19:52:35.462Z,6.29
2023-04-13T19:55:01.998Z,6.25
2023-04-13T19:57:28.852Z,6.25
2023-04-13T19:59:55.285Z,6.22
2023-04-13T20:02:21.902Z,6.36
2023-04-13T20:04:52.021Z,6.33
2023-04-13T20:07:18.415Z,6.30
2023-04-13T20:09:45.307Z,6.35
2023-04-13T20:12:12.295Z,6.49
2023-04-13T20:14:41.663Z,6.48
2023-04-13T20:17:08.884Z,6.41
2023-04-13T20:19:36.334Z,6.42
2023-04-13T20:22:04.186Z,6.44
2023-04-13T20:24:31.275Z,6.49
2023-04-13T20:26:58.042Z,6.48
2023-04-13T20:29:26.742Z,6.50
2023-04-13T20:31:53.688Z,6.55
2023-04-13T20:34:20.532Z,6.47
2023-04-13T20:36:47.456Z,6.45
2023-04-13T20:39:14.016Z,6.54
2023-04-13T20:41:40.384Z,6.70
2023-04-13T20:44:09.813Z,6.80
2023-04-13T20:46:37.569Z,6.91
2023-04-13T20:49:05.128Z,6.95
2023-04-13T20:51:33.503Z,7.05
2023-04-13T20:54:02.993Z,7.07
2023-04-13T20:56:29.939Z,7.06
2023-04-13T20:58:57.742Z,7.11
2023-04-13T21:01:28.023Z,6.99
2023-04-13T21:03:54.538Z,6.87
2023-04-13T21:06:22.594Z,6.85
2023-04-13T21:08:49.221Z,7.07
2023-04-13T21:11:15.630Z,7.15
2023-04-13T21:13:42.182Z,7.21
2023-04-13T21:16:09.139Z,7.21
2023-04-13T21:18:36.605Z,7.23
2023-04-13T21:21:05.284Z,7.26
2023-04-13T21:23:31.663Z,7.25
2023-04-13T21:25:58.172Z,7.29
2023-04-13T21:28:24.502Z,7.28
2023-04-13T21:30:50.867Z,7.17
2023-04-13T21:33:17.295Z,7.01
2023-04-13T21:35:43.665Z,6.92
2023-04-13T21:38:10.354Z,6.76
2023-04-13T21:40:36.694Z,6.68
2023-04-13T21:43:03.297Z,6.55
2023-04-13T21:45:29.988Z,6.53
2023-04-13T21:47:56.427Z,6.39
2023-04-13T21:50:23.028Z,6.39
2023-04-13T21:52:49.463Z,6.22
2023-04-13T21:55:19.085Z,6.20
2023-04-13T21:57:46.266Z,6.21
2023-04-13T22:00:14.980Z,6.32
2023-04-13T22:02:42.094Z,6.31
2023-04-13T22:05:11.126Z,6.49
2023-04-13T22:07:42.808Z,6.58
2023-04-13T22:10:10.581Z,6.59
2023-04-13T22:12:37.016Z,6.63
2023-04-13T22:15:03.732Z,6.51
2023-04-13T22:17:30.197Z,6.64
2023-04-13T22:19:56.616Z,6.64
2023-04-13T22:22:23.109Z,6.68
2023-04-13T22:24:52.160Z,6.69
2023-04-13T22:27:18.723Z,6.71
2023-04-13T22:29:45.415Z,6.69
2023-04-13T22:32:11.734Z,6.69
2023-04-13T22:34:38.035Z,6.51
2023-04-13T22:37:04.993Z,6.62
2023-04-13T22:39:31.602Z,6.67
2023-04-13T22:41:58.929Z,6.64
2023-04-13T22:44:25.346Z,6.69
2023-04-13T22:46:53.802Z,6.64
2023-04-13T22:49:20.169Z,6.51
2023-04-13T22:51:46.581Z,6.46
2023-04-13T22:54:12.972Z,6.44
2023-04-13T22:56:39.303Z,6.57
2023-04-13T22:59:05.689Z,6.49
2023-04-13T23:01:32.093Z,6.48
2023-04-13T23:03:58.666Z,6.48
2023-04-13T23:06:25.327Z,6.42
2023-04-13T23:08:51.688Z,6.20
2023-04-13T23:11:18.019Z,6.20
2023-04-13T23:13:46.690Z,6.19
2023-04-13T23:16:13.055Z,6.21
2023-04-13T23:18:39.404Z,6.07
2023-04-13T23:21:10.481Z,6.04
2023-04-13T23:23:37.476Z,5.96
2023-04-13T23:26:04.129Z,5.94
2023-04-13T23:28:30.594Z,5.88
2023-04-13T23:31:06.954Z,5.89
2023-04-13T23:33:34.336Z,5.92
2023-04-13T23:36:01.559Z,5.84
2023-04-13T23:38:28.508Z,5.87
2023-04-13T23:40:55.024Z,5.89
2023-04-13T23:43:21.916Z,5.83
2023-04-13T23:45:52.109Z,5.88
2023-04-13T23:48:22.839Z,5.95
2023-04-13T23:50:49.351Z,5.83
2023-04-13T23:53:16.441Z,6.00
2023-04-13T23:55:42.881Z,6.07
2023-04-13T23:58:09.298Z,6.14
